Time;durP1;ratioP1;P1;durP2;ratioP2;P2;SDS_P1;SDS_P2;PMS_P1;PMS_P2;Temp;Humidity;BMP_temperature;BMP_pressure;BME280_temperature;BME280_humidity;BME280_pressure;Samples;Min_cycle;Max_cycle;Signal;HPM_P1;HPM_P2
2023/02/13 00:02:29;;;;;;;37.90;13.80;;;;;;;5.19;95.78;102351.81;106604;1271;22553;-59
2023/02/13 00:05:00;;;;;;;44.60;13.20;;;;;;;5.18;95.72;102347.70;106234;1279;22647;-59
2023/02/13 00:07:31;;;;;;;41.40;15.30;;;;;;;5.16;95.69;102349.42;106218;1271;23276;-59
2023/02/13 00:10:02;;;;;;;34.80;13.50;;;;;;;5.16;95.74;102348.31;106142;1267;22583;-59
2023/02/13 00:12:34;;;;;;;38.10;13.90;;;;;;;5.15;95.75;102350.62;106136;1277;24336;-59
2023/02/13 00:15:07;;;;;;;41.10;13.10;;;;;;;5.16;95.88;102350.69;106196;1273;22537;-60
2023/02/13 00:17:38;;;;;;;49.60;15.80;;;;;;;5.15;95.76;102345.23;106309;1279;24224;-59
2023/02/13 00:20:12;;;;;;;35.60;13.20;;;;;;;5.14;95.84;102340.08;106119;1277;22537;-58
2023/02/13 00:22:43;;;;;;;33.00;13.60;;;;;;;5.12;95.78;102335.73;106184;1279;22541;-58
2023/02/13 00:25:14;;;;;;;34.80;13.90;;;;;;;5.10;95.79;102338.80;106156;1272;22587;-59
2023/02/13 00:27:45;;;;;;;30.30;11.40;;;;;;;5.08;95.79;102337.30;106141;1267;23162;-58
2023/02/13 00:30:16;;;;;;;31.60;11.00;;;;;;;5.08;95.86;102337.20;106267;1279;22556;-59
2023/02/13 00:32:47;;;;;;;31.80;10.70;;;;;;;5.05;95.84;102334.98;106300;1279;24228;-59
2023/02/13 00:35:18;;;;;;;39.20;12.40;;;;;;;5.02;95.91;102332.38;106164;1279;24274;-56
2023/02/13 00:37:49;;;;;;;38.50;12.40;;;;;;;5.01;95.91;102335.77;106134;1279;24411;-59
2023/02/13 00:40:21;;;;;;;32.80;10.80;;;;;;;4.99;95.97;102341.38;106132;1277;24389;-59
2023/02/13 00:42:52;;;;;;;33.30;11.00;;;;;;;4.99;95.95;102340.51;106202;1265;22664;-61
2023/02/13 00:45:23;;;;;;;31.40;10.80;;;;;;;4.98;95.97;102340.03;106358;1277;22537;-59
2023/02/13 00:47:54;;;;;;;29.10;10.30;;;;;;;4.97;95.98;102339.78;106312;1279;22536;-58
2023/02/13 00:50:25;;;;;;;30.10;10.00;;;;;;;4.99;96.03;102338.30;106148;1279;22537;-60
2023/02/13 00:52:56;;;;;;;29.70;10.10;;;;;;;5.00;96.02;102340.13;106265;1279;24283;-59
2023/02/13 00:55:27;;;;;;;27.50;10.50;;;;;;;5.03;96.02;102337.27;106127;1277;22543;-59
2023/02/13 00:57:58;;;;;;;31.70;10.00;;;;;;;5.03;95.85;102338.62;106192;1279;22534;-60
2023/02/13 01:00:29;;;;;;;26.50;9.20;;;;;;;5.02;95.84;102340.60;106180;1277;22537;-61
2023/02/13 01:03:00;;;;;;;31.10;10.90;;;;;;;5.01;95.91;102342.18;106257;1279;24338;-58
2023/02/13 01:05:32;;;;;;;32.10;9.80;;;;;;;5.00;95.87;102338.14;106139;1277;22537;-58
2023/02/13 01:08:03;;;;;;;29.70;9.40;;;;;;;5.01;95.89;102341.39;106172;1273;22530;-57
2023/02/13 01:10:34;;;;;;;33.20;10.30;;;;;;;5.01;95.85;102336.25;106132;1276;22524;-59
2023/02/13 01:13:05;;;;;;;32.20;9.70;;;;;;;5.00;95.77;102339.48;106123;1273;22563;-56
2023/02/13 01:15:36;;;;;;;27.90;10.60;;;;;;;5.00;95.77;102337.83;106109;1258;22556;-61
2023/02/13 01:18:08;;;;;;;29.50;9.20;;;;;;;5.00;95.70;102334.20;106198;1278;22536;-56
2023/02/13 01:20:38;;;;;;;32.30;10.10;;;;;;;5.01;95.72;102338.70;106192;1277;24354;-58
2023/02/13 01:23:10;;;;;;;30.00;9.70;;;;;;;5.02;95.65;102333.17;106191;1273;24379;-58
2023/02/13 01:25:43;;;;;;;24.60;8.10;;;;;;;5.02;95.54;102336.88;106197;1279;22537;-58
2023/02/13 01:28:14;;;;;;;24.30;7.80;;;;;;;5.01;95.52;102335.38;106157;1273;22563;-56
2023/02/13 01:30:45;;;;;;;23.80;7.20;;;;;;;5.01;95.45;102335.61;106111;1258;22536;-62
2023/02/13 01:33:16;;;;;;;22.50;8.30;;;;;;;5.02;95.46;102332.52;106072;1279;22532;-59
2023/02/13 01:35:47;;;;;;;23.30;8.00;;;;;;;5.03;95.39;102327.95;106316;1279;24275;-59
2023/02/13 01:38:18;;;;;;;26.40;8.10;;;;;;;5.04;95.42;102329.77;106161;1279;22595;-58
2023/02/13 01:40:51;;;;;;;26.10;7.50;;;;;;;5.04;95.36;102330.56;106163;1279;22533;-59
2023/02/13 01:43:23;;;;;;;25.70;7.30;;;;;;;5.05;95.37;102331.35;106223;1279;22547;-59
2023/02/13 01:45:57;;;;;;;26.70;7.50;;;;;;;5.06;95.29;102329.67;106237;1279;22623;-59
2023/02/13 01:48:29;;;;;;;30.80;8.30;;;;;;;5.07;95.36;102328.52;106466;1277;26557;-58
2023/02/13 01:51:02;;;;;;;23.30;7.30;;;;;;;5.08;95.31;102325.44;106226;1273;23788;-60
2023/02/13 01:53:38;;;;;;;27.80;8.40;;;;;;;5.08;95.27;102331.44;106175;1272;25341;-58
2023/02/13 01:56:13;;;;;;;31.50;8.20;;;;;;;5.06;95.26;102325.59;106255;1279;22537;-57
2023/02/13 01:58:48;;;;;;;24.90;8.70;;;;;;;5.07;95.33;102321.63;106139;1279;22628;-61
2023/02/13 02:01:19;;;;;;;29.30;9.30;;;;;;;5.08;95.28;102320.45;106090;1265;24875;-59
2023/02/13 02:03:56;;;;;;;30.60;9.80;;;;;;;5.08;95.24;102317.92;106230;1277;25494;-59
2023/02/13 02:06:30;;;;;;;24.50;7.90;;;;;;;5.08;95.12;102310.23;106140;1279;24283;-59
2023/02/13 02:09:05;;;;;;;25.10;7.70;;;;;;;5.06;95.11;102304.55;106360;1261;22559;-56
2023/02/13 02:11:41;;;;;;;25.30;7.50;;;;;;;5.04;95.08;102307.30;106138;1279;22533;-59
2023/02/13 02:14:12;;;;;;;24.20;8.40;;;;;;;5.03;95.13;102304.30;106229;1273;22533;-58
2023/02/13 02:16:43;;;;;;;27.00;8.80;;;;;;;5.03;95.27;102300.27;106093;1279;22626;-57
2023/02/13 02:19:23;;;;;;;21.20;6.90;;;;;;;5.04;95.19;102302.02;106136;1279;22539;-59
2023/02/13 02:22:07;;;;;;;22.00;7.30;;;;;;;5.04;95.22;102303.03;106075;1279;24284;-58
2023/02/13 02:25:32;;;;;;;23.30;6.50;;;;;;;5.03;95.20;102303.11;106274;1277;22543;-58
2023/02/13 02:28:43;;;;;;;22.70;6.50;;;;;;;5.02;95.29;102302.48;106046;1279;22534;-58
2023/02/13 02:31:45;;;;;;;24.60;8.00;;;;;;;5.02;95.24;102305.25;105976;1278;195314;-59
2023/02/13 02:34:28;;;;;;;23.20;6.70;;;;;;;5.02;95.42;102302.95;106119;1268;25316;-57
2023/02/13 02:37:14;;;;;;;27.30;10.10;;;;;;;5.03;95.35;102300.34;106127;1279;22535;-59
2023/02/13 02:39:58;;;;;;;24.20;6.80;;;;;;;5.04;95.53;102303.12;106286;1279;24512;-60
2023/02/13 02:42:36;;;;;;;24.90;7.20;;;;;;;5.06;95.53;102301.39;106148;1281;25446;-59
2023/02/13 02:45:15;;;;;;;20.30;7.10;;;;;;;5.07;95.52;102307.08;106102;1281;22677;-60
2023/02/13 02:50:51;;;;;;;22.20;7.30;;;;;;;5.10;95.65;102307.55;106088;1272;22606;-56
2023/02/13 02:53:32;;;;;;;22.40;7.80;;;;;;;5.11;95.68;102309.30;106165;1271;22550;-58
2023/02/13 02:56:11;;;;;;;22.90;8.00;;;;;;;5.12;95.73;102307.00;106162;1281;24228;-59
2023/02/13 03:07:20;;;;;;;23.50;7.20;;;;;;;5.12;95.72;102307.25;106121;1267;22495;-59
2023/02/13 03:24:25;;;;;;;19.50;7.00;;;;;;;5.06;95.77;102299.80;106008;1276;23039;-58
2023/02/13 03:26:58;;;;;;;;;;;;;;;5.05;95.89;102294.65;106086;1277;22843;-56
2023/02/13 03:32:43;;;;;;;26.50;7.60;;;;;;;5.03;96.01;102300.19;105975;1281;22551;-58
2023/02/13 03:38:22;;;;;;;25.10;8.40;;;;;;;5.05;96.34;102293.40;105954;1275;22581;-60
2023/02/13 03:41:18;;;;;;;25.20;7.90;;;;;;;5.06;96.24;102296.17;106042;1282;24273;-58
2023/02/13 03:43:58;;;;;;;25.90;8.30;;;;;;;5.05;96.30;102302.65;106030;1282;22581;-57
2023/02/13 03:46:34;;;;;;;19.80;6.10;;;;;;;5.04;96.23;102307.63;106281;1276;25397;-61
2023/02/13 03:52:03;;;;;;;18.70;6.10;;;;;;;5.00;96.22;102305.24;106083;1274;25593;-58
2023/02/13 04:00:22;;;;;;;24.20;8.40;;;;;;;4.98;96.36;102317.90;105990;1282;25535;-58
2023/02/13 04:02:58;;;;;;;24.10;7.90;;;;;;;4.99;96.57;102310.15;106295;1274;24272;-60
2023/02/13 04:05:32;;;;;;;22.90;7.10;;;;;;;4.99;96.53;102311.24;106189;1273;22527;-57
2023/02/13 04:08:03;;;;;;;22.30;8.10;;;;;;;4.98;96.68;102307.93;106204;1273;24275;-61
2023/02/13 04:10:39;;;;;;;23.80;7.10;;;;;;;4.99;96.74;102310.77;106076;1279;24383;-59
2023/02/13 04:13:17;;;;;;;24.00;7.70;;;;;;;4.98;96.81;102309.27;106192;1279;25812;-58
2023/02/13 04:15:53;;;;;;;23.50;8.60;;;;;;;4.94;96.85;102308.15;106178;1279;24290;-56
2023/02/13 04:18:28;;;;;;;22.60;8.30;;;;;;;4.93;97.02;102300.16;106035;1276;24392;-58
2023/02/13 04:21:01;;;;;;;23.50;8.20;;;;;;;4.92;97.13;102303.80;106180;1279;22710;-57
2023/02/13 04:23:32;;;;;;;23.00;8.00;;;;;;;4.91;97.15;102300.86;106143;1279;24278;-56
2023/02/13 04:26:06;;;;;;;24.00;8.50;;;;;;;4.91;97.26;102302.45;106115;1279;25303;-58
2023/02/13 04:28:37;;;;;;;24.00;8.60;;;;;;;4.91;97.26;102300.47;106204;1272;22526;-57
2023/02/13 04:31:08;;;;;;;22.50;7.10;;;;;;;4.91;97.34;102298.80;106076;1279;26548;-58
2023/02/13 04:33:39;;;;;;;26.20;7.30;;;;;;;4.90;97.30;102298.48;106200;1279;24294;-57
2023/02/13 04:36:10;;;;;;;26.00;8.00;;;;;;;4.91;97.36;102296.27;106101;1273;23164;-58
2023/02/13 04:38:41;;;;;;;21.80;7.90;;;;;;;4.93;97.32;102297.15;106242;1278;22539;-56
2023/02/13 04:41:13;;;;;;;27.90;8.70;;;;;;;4.92;97.29;102300.23;106138;1273;22549;-57
2023/02/13 04:43:44;;;;;;;23.80;7.80;;;;;;;4.88;97.35;102300.29;106117;1273;22534;-58
2023/02/13 04:46:14;;;;;;;21.60;7.00;;;;;;;4.87;97.50;102304.33;106064;1273;24367;-58
2023/02/13 04:48:45;;;;;;;19.30;6.50;;;;;;;4.85;97.43;102301.24;106372;1274;23060;-59
2023/02/13 04:51:16;;;;;;;21.90;8.20;;;;;;;4.84;97.58;102299.11;106387;1276;25350;-59
2023/02/13 04:53:47;;;;;;;19.60;8.80;;;;;;;4.81;97.65;102296.95;106054;1277;24120;-58
2023/02/13 04:56:18;;;;;;;30.50;11.30;;;;;;;4.79;97.81;102294.58;106073;1274;22533;-57
2023/02/13 04:58:49;;;;;;;28.10;12.10;;;;;;;4.78;97.86;102292.67;106249;1279;22546;-58
2023/02/13 05:01:20;;;;;;;31.60;12.60;;;;;;;4.78;97.94;102291.41;106053;1279;22526;-56
2023/02/13 05:03:51;;;;;;;34.40;12.60;;;;;;;4.78;97.98;102285.88;106110;1276;24246;-57
2023/02/13 05:06:23;;;;;;;31.70;11.70;;;;;;;4.78;98.13;102281.92;106092;1279;22544;-55
2023/02/13 05:08:53;;;;;;;29.60;11.40;;;;;;;4.78;98.03;102279.48;106102;1278;24225;-56
2023/02/13 05:11:24;;;;;;;25.70;10.40;;;;;;;4.81;98.16;102278.15;106119;1279;22529;-56
2023/02/13 05:13:56;;;;;;;20.80;9.00;;;;;;;4.83;98.17;102282.11;106114;1279;24300;-56
2023/02/13 05:16:27;;;;;;;22.90;9.00;;;;;;;4.84;98.21;102282.33;106077;1279;24263;-57
2023/02/13 05:18:57;;;;;;;22.10;7.40;;;;;;;4.84;98.20;102281.39;106089;1276;24274;-58
2023/02/13 05:24:17;;;;;;;22.80;7.90;;;;;;;4.83;98.34;102279.96;106095;1279;24242;-57
2023/02/13 05:26:48;;;;;;;23.30;8.80;;;;;;;4.82;98.48;102280.59;106180;1276;25382;-57
2023/02/13 05:29:19;;;;;;;21.80;7.50;;;;;;;4.82;98.53;102278.14;106094;1265;22535;-56
2023/02/13 05:31:50;;;;;;;22.40;7.40;;;;;;;4.82;98.49;102279.65;106350;1279;22596;-56
2023/02/13 05:34:22;;;;;;;24.00;8.60;;;;;;;4.81;98.58;102284.38;106080;1276;24261;-56
2023/02/13 05:36:54;;;;;;;23.90;8.50;;;;;;;4.81;98.53;102286.14;106447;1273;22554;-55
2023/02/13 05:39:24;;;;;;;21.40;7.50;;;;;;;4.81;98.63;102282.41;106110;1276;26041;-58
2023/02/13 05:41:55;;;;;;;20.80;7.40;;;;;;;4.82;98.68;102283.44;106094;1279;22549;-57
2023/02/13 05:44:26;;;;;;;24.80;8.20;;;;;;;4.81;98.78;102286.45;106125;1264;24280;-57
2023/02/13 05:46:57;;;;;;;24.50;8.80;;;;;;;4.80;98.81;102286.68;106072;1279;23910;-55
2023/02/13 05:49:28;;;;;;;23.50;8.40;;;;;;;4.79;98.90;102288.02;106306;1274;24316;-56
2023/02/13 05:51:59;;;;;;;23.70;8.50;;;;;;;4.78;98.98;102288.79;106113;1276;24379;-57
2023/02/13 05:54:30;;;;;;;25.70;8.70;;;;;;;4.78;99.01;102288.56;106085;1280;25261;-59
2023/02/13 05:57:00;;;;;;;26.10;9.60;;;;;;;4.76;99.13;102291.23;106150;1276;25413;-58
2023/02/13 05:59:31;;;;;;;25.30;10.40;;;;;;;4.76;99.31;102291.31;106062;1277;25261;-55
2023/02/13 06:02:02;;;;;;;24.10;9.90;;;;;;;4.76;99.36;102293.84;106084;1279;22533;-59
2023/02/13 06:04:33;;;;;;;26.10;9.40;;;;;;;4.77;99.47;102298.52;106167;1279;25365;-56
2023/02/13 06:07:04;;;;;;;26.40;8.80;;;;;;;4.77;99.56;102300.88;106133;1279;22537;-58
2023/02/13 06:09:35;;;;;;;23.50;8.50;;;;;;;4.76;99.67;102302.15;106110;1278;24275;-59
2023/02/13 06:12:06;;;;;;;25.60;10.00;;;;;;;4.77;99.81;102297.56;106119;1279;23438;-60
2023/02/13 06:14:37;;;;;;;21.10;8.30;;;;;;;4.78;99.89;102295.91;106131;1274;22564;-57
2023/02/13 06:17:08;;;;;;;28.40;8.40;;;;;;;4.79;99.97;102297.66;106133;1279;23317;-58
2023/02/13 06:19:39;;;;;;;26.60;10.60;;;;;;;4.79;100.00;102300.05;106129;1279;24222;-58
2023/02/13 06:22:10;;;;;;;26.10;9.60;;;;;;;4.80;100.00;102300.83;106145;1279;22534;-60
2023/02/13 06:24:41;;;;;;;23.40;9.40;;;;;;;4.82;99.98;102299.09;106247;1269;22543;-58
2023/02/13 06:27:12;;;;;;;22.50;7.50;;;;;;;4.83;100.00;102297.77;106092;1279;25379;-56
2023/02/13 06:29:43;;;;;;;25.20;9.70;;;;;;;4.85;100.00;102301.80;106062;1278;23039;-58
2023/02/13 06:32:14;;;;;;;24.10;8.80;;;;;;;4.85;100.00;102308.75;106260;1279;23040;-59
2023/02/13 06:34:44;;;;;;;24.10;8.30;;;;;;;4.86;100.00;102312.55;106112;1279;24257;-57
2023/02/13 06:37:15;;;;;;;27.20;9.50;;;;;;;4.86;100.00;102312.47;106074;1277;23309;-60
2023/02/13 06:39:46;;;;;;;23.80;10.10;;;;;;;4.87;100.00;102310.58;106113;1277;24338;-60
2023/02/13 06:42:17;;;;;;;21.80;8.80;;;;;;;4.89;100.00;102313.67;106084;1273;25316;-58
2023/02/13 06:44:48;;;;;;;24.40;8.90;;;;;;;4.88;100.00;102311.52;106208;1274;24318;-57
2023/02/13 06:47:19;;;;;;;28.60;9.70;;;;;;;4.89;100.00;102311.38;106049;1273;22544;-61
2023/02/13 06:49:50;;;;;;;23.60;8.40;;;;;;;4.89;100.00;102315.24;106157;1279;25448;-59
2023/02/13 06:52:21;;;;;;;24.40;8.90;;;;;;;4.89;100.00;102316.84;106561;1274;23025;-59
2023/02/13 06:54:52;;;;;;;25.00;8.70;;;;;;;4.91;100.00;102319.83;106083;1276;23041;-56
2023/02/13 06:57:23;;;;;;;26.60;9.60;;;;;;;4.93;100.00;102321.27;106108;1279;22574;-57
2023/02/13 06:59:54;;;;;;;32.20;11.30;;;;;;;4.95;100.00;102319.54;106090;1278;22575;-59
2023/02/13 07:02:25;;;;;;;31.40;11.30;;;;;;;4.97;100.00;102318.75;106091;1273;22534;-56
2023/02/13 07:04:56;;;;;;;28.40;11.50;;;;;;;4.99;100.00;102317.58;106095;1279;22538;-58
2023/02/13 07:07:27;;;;;;;27.90;9.80;;;;;;;5.01;100.00;102317.42;106065;1274;23177;-59
2023/02/13 07:09:58;;;;;;;26.30;10.00;;;;;;;5.02;100.00;102320.50;106098;1279;22530;-60
2023/02/13 07:12:29;;;;;;;24.30;8.50;;;;;;;5.05;100.00;102315.45;106103;1274;22971;-57
2023/02/13 07:15:00;;;;;;;23.70;7.80;;;;;;;5.07;100.00;102312.53;106110;1279;22534;-56
2023/02/13 07:17:32;;;;;;;24.20;8.20;;;;;;;5.10;100.00;102310.57;106127;1273;22538;-58
2023/02/13 07:20:04;;;;;;;26.00;8.30;;;;;;;5.12;100.00;102307.01;106222;1279;22540;-57
2023/02/13 07:22:36;;;;;;;21.80;7.60;;;;;;;5.15;100.00;102308.91;106170;1267;25379;-57
2023/02/13 07:25:08;;;;;;;26.50;8.80;;;;;;;5.17;100.00;102303.54;106157;1276;22552;-60
2023/02/13 07:27:39;;;;;;;27.40;10.30;;;;;;;5.19;100.00;102303.70;106183;1279;22661;-58
2023/02/13 07:30:13;;;;;;;28.90;11.30;;;;;;;5.22;100.00;102307.98;106099;1273;24303;-58
2023/02/13 07:32:44;;;;;;;25.60;9.30;;;;;;;5.23;100.00;102306.09;106195;1272;22552;-58
2023/02/13 07:35:15;;;;;;;26.60;9.80;;;;;;;5.25;100.00;102301.02;106165;1267;23117;-60
2023/02/13 07:37:46;;;;;;;24.60;8.70;;;;;;;5.26;100.00;102306.02;106286;1279;24292;-56
2023/02/13 07:40:17;;;;;;;25.20;8.20;;;;;;;5.27;100.00;102303.97;106143;1279;25390;-59
2023/02/13 07:42:48;;;;;;;25.90;9.50;;;;;;;5.28;100.00;102304.58;106283;1279;22557;-59
2023/02/13 07:45:19;;;;;;;21.60;7.40;;;;;;;5.30;100.00;102306.89;106394;1279;24478;-57
2023/02/13 07:47:50;;;;;;;23.90;8.30;;;;;;;5.32;100.00;102305.86;106096;1264;24217;-60
2023/02/13 07:50:21;;;;;;;25.70;10.00;;;;;;;5.33;100.00;102305.08;106145;1279;22549;-60
2023/02/13 07:52:56;;;;;;;27.10;9.70;;;;;;;5.36;100.00;102301.60;106076;1267;24250;-61
2023/02/13 07:55:27;;;;;;;24.20;8.70;;;;;;;5.37;100.00;102302.70;106122;1278;22565;-60
2023/02/13 07:57:59;;;;;;;24.60;9.50;;;;;;;5.39;100.00;102298.35;106274;1279;22545;-59
2023/02/13 08:00:31;;;;;;;25.80;9.80;;;;;;;5.41;100.00;102300.17;106160;1271;22551;-59
2023/02/13 08:03:02;;;;;;;27.50;9.40;;;;;;;5.43;100.00;102300.89;106132;1267;25555;-60
2023/02/13 08:05:34;;;;;;;25.60;9.30;;;;;;;5.45;100.00;102303.04;106182;1277;22636;-59
2023/02/13 08:08:05;;;;;;;29.10;9.40;;;;;;;5.47;100.00;102300.82;106305;1277;24430;-60
2023/02/13 08:13:25;;;;;;;32.00;9.20;;;;;;;5.51;100.00;102303.44;106082;1274;25351;-58
2023/02/13 08:15:56;;;;;;;28.20;10.60;;;;;;;5.52;100.00;102306.69;106103;1279;22533;-57
2023/02/13 08:18:27;;;;;;;25.70;10.30;;;;;;;5.53;100.00;102311.04;106068;1279;22547;-58
2023/02/13 08:20:58;;;;;;;29.20;11.80;;;;;;;5.55;100.00;102307.16;106096;1276;23022;-58
2023/02/13 08:23:29;;;;;;;30.70;11.10;;;;;;;5.57;100.00;102306.05;106126;1277;23399;-59
2023/02/13 08:26:02;;;;;;;29.60;11.90;;;;;;;5.60;100.00;102308.43;106168;1260;22654;-59
2023/02/13 08:28:33;;;;;;;29.40;11.70;;;;;;;5.62;100.00;102309.55;106189;1277;22550;-57
2023/02/13 08:31:09;;;;;;;29.80;11.80;;;;;;;5.64;100.00;102307.72;106101;1279;22531;-58
2023/02/13 08:33:41;;;;;;;30.30;11.50;;;;;;;5.67;100.00;102311.28;106173;1279;22702;-59
2023/02/13 08:36:13;;;;;;;30.80;13.20;;;;;;;5.69;100.00;102310.71;106155;1264;24388;-57
2023/02/13 08:38:44;;;;;;;34.90;12.20;;;;;;;5.71;100.00;102311.29;106164;1276;22701;-59
2023/02/13 08:41:17;;;;;;;36.20;11.60;;;;;;;5.73;100.00;102310.01;106116;1279;22728;-60
2023/02/13 08:43:48;;;;;;;39.80;13.90;;;;;;;5.77;100.00;102303.67;106316;1273;22540;-60
2023/02/13 08:46:19;;;;;;;32.40;12.60;;;;;;;5.80;100.00;102304.48;106061;1265;22600;-57
2023/02/13 08:48:50;;;;;;;30.10;12.70;;;;;;;5.82;100.00;102305.10;106097;1279;22538;-59
2023/02/13 08:51:21;;;;;;;33.80;12.20;;;;;;;5.84;100.00;102303.22;106091;1270;25439;-59
2023/02/13 08:53:52;;;;;;;37.00;14.20;;;;;;;5.87;100.00;102303.06;106259;1279;24440;-60
2023/02/13 08:56:24;;;;;;;41.70;16.50;;;;;;;5.89;100.00;102306.32;106308;1277;22546;-59
2023/02/13 08:58:55;;;;;;;35.30;13.90;;;;;;;5.91;100.00;102304.49;106090;1279;22540;-57
2023/02/13 09:01:25;;;;;;;38.20;14.80;;;;;;;5.92;100.00;102306.89;106190;1273;24296;-59
2023/02/13 09:03:56;;;;;;;31.60;12.10;;;;;;;5.93;100.00;102307.19;106162;1279;22537;-57
2023/02/13 09:06:28;;;;;;;38.30;13.70;;;;;;;5.94;100.00;102309.65;106278;1273;25494;-58
2023/02/13 09:08:59;;;;;;;34.40;12.30;;;;;;;5.96;100.00;102315.73;106158;1276;22537;-59
2023/02/13 09:11:30;;;;;;;31.50;12.00;;;;;;;5.99;100.00;102313.04;106156;1276;25402;-60
2023/02/13 09:14:01;;;;;;;32.10;11.60;;;;;;;6.01;100.00;102314.77;106155;1279;22547;-58
2023/02/13 09:16:33;;;;;;;28.50;9.30;;;;;;;6.02;100.00;102320.48;106191;1273;24557;-58
2023/02/13 09:19:04;;;;;;;28.10;8.90;;;;;;;6.05;100.00;102321.91;106087;1279;22626;-58
2023/02/13 09:21:35;;;;;;;27.60;9.20;;;;;;;6.08;100.00;102322.77;106137;1279;23140;-59
2023/02/13 09:24:09;;;;;;;22.90;7.90;;;;;;;6.10;100.00;102320.86;106208;1279;24266;-58
2023/02/13 09:26:40;;;;;;;23.80;7.20;;;;;;;6.12;100.00;102334.17;106147;1274;24251;-56
2023/02/13 09:29:11;;;;;;;22.00;6.00;;;;;;;6.15;100.00;102338.28;106100;1278;22745;-59
2023/02/13 09:31:42;;;;;;;21.60;7.30;;;;;;;6.15;100.00;102341.61;106142;1273;22536;-58
2023/02/13 09:34:13;;;;;;;18.80;5.30;;;;;;;6.13;100.00;102346.15;106163;1278;22533;-59
2023/02/13 09:36:43;;;;;;;17.80;5.30;;;;;;;6.09;100.00;102340.83;106091;1278;22532;-58
2023/02/13 09:39:15;;;;;;;13.40;3.00;;;;;;;6.05;100.00;102349.86;106141;1264;24246;-60
2023/02/13 09:41:50;;;;;;;9.70;2.20;;;;;;;5.98;100.00;102347.66;106160;1273;24745;-56
2023/02/13 09:44:34;;;;;;;7.90;1.90;;;;;;;5.91;100.00;102350.35;106119;1277;22649;-58
2023/02/13 09:47:14;;;;;;;6.20;1.30;;;;;;;5.85;100.00;102353.11;106161;1274;22992;-58
2023/02/13 09:49:50;;;;;;;9.60;1.90;;;;;;;5.80;100.00;102357.61;106276;1278;25309;-59
2023/02/13 09:52:21;;;;;;;6.50;1.40;;;;;;;5.74;100.00;102358.00;106118;1274;22652;-57
2023/02/13 09:54:52;;;;;;;9.80;1.70;;;;;;;5.69;100.00;102364.34;106350;1279;22540;-58
2023/02/13 09:57:29;;;;;;;8.70;1.50;;;;;;;5.67;100.00;102362.82;106317;1279;25261;-61
2023/02/13 10:00:11;;;;;;;6.90;1.50;;;;;;;5.65;100.00;102366.23;106228;1264;22692;-57
2023/02/13 10:03:07;;;;;;;8.70;1.30;;;;;;;5.66;100.00;102369.95;106134;1279;26640;-57
2023/02/13 10:05:46;;;;;;;7.60;1.50;;;;;;;5.68;100.00;102366.45;106110;1276;24303;-59
2023/02/13 10:08:32;;;;;;;5.90;1.60;;;;;;;5.70;100.00;102365.20;106252;1278;25472;-59
2023/02/13 10:11:15;;;;;;;9.00;1.50;;;;;;;5.73;100.00;102362.59;106127;1279;24225;-56
2023/02/13 10:14:02;;;;;;;7.30;1.60;;;;;;;5.78;100.00;102360.77;106124;1277;24264;-57
2023/02/13 10:16:38;;;;;;;8.10;1.20;;;;;;;5.82;100.00;102359.42;106302;1279;22548;-59
2023/02/13 10:19:17;;;;;;;6.80;1.40;;;;;;;5.86;100.00;102359.53;106212;1279;22534;-56
2023/02/13 10:21:55;;;;;;;7.20;1.50;;;;;;;5.90;100.00;102354.16;106273;1279;24274;-60
2023/02/13 10:24:34;;;;;;;6.90;1.30;;;;;;;5.90;100.00;102354.30;106135;1256;25698;-57
2023/02/13 10:27:16;;;;;;;8.50;1.90;;;;;;;5.92;100.00;102357.40;106333;1279;22536;-58
2023/02/13 10:30:08;;;;;;;6.10;1.30;;;;;;;5.93;100.00;102357.88;106248;1279;25263;-59
2023/02/13 10:32:47;;;;;;;6.80;1.30;;;;;;;5.96;100.00;102355.50;106234;1276;22540;-60
2023/02/13 10:35:27;;;;;;;11.70;1.30;;;;;;;5.99;100.00;102355.50;106167;1279;24569;-58
2023/02/13 10:38:00;;;;;;;10.50;1.70;;;;;;;6.03;100.00;102356.45;106235;1263;23411;-58
2023/02/13 10:40:40;;;;;;;7.50;1.50;;;;;;;6.07;100.00;102352.89;106122;1273;24786;-60
2023/02/13 10:43:11;;;;;;;;;;;;;;;6.10;100.00;102355.11;106167;1273;22730;-59
2023/02/13 10:45:56;;;;;;;6.90;1.10;;;;;;;6.12;99.93;102353.84;106331;1257;22618;-59
2023/02/13 10:48:44;;;;;;;6.10;1.40;;;;;;;6.13;99.66;102349.95;106242;1274;23025;-58
2023/02/13 10:51:22;;;;;;;5.50;1.00;;;;;;;6.16;98.68;102348.19;106392;1267;22899;-58
2023/02/13 10:54:18;;;;;;;8.50;1.30;;;;;;;6.19;98.18;102346.05;106226;1276;22581;-60
2023/02/13 10:56:54;;;;;;;9.10;1.70;;;;;;;6.21;96.66;102342.48;106217;1274;22551;-60
2023/02/13 10:59:42;;;;;;;7.50;1.00;;;;;;;6.22;96.81;102338.44;106462;1277;23928;-59
2023/02/13 11:02:24;;;;;;;6.20;1.10;;;;;;;6.26;97.28;102333.36;106379;1276;22537;-58
2023/02/13 11:05:00;;;;;;;5.80;1.90;;;;;;;6.28;97.39;102324.41;106256;1264;26613;-60
2023/02/13 11:07:32;;;;;;;4.70;1.00;;;;;;;6.29;96.66;102331.45;106187;1264;24248;-59
2023/02/13 11:10:14;;;;;;;3.40;0.90;;;;;;;6.30;96.75;102327.48;106377;1279;22549;-61
2023/02/13 11:12:46;;;;;;;6.90;1.00;;;;;;;6.30;95.91;102332.25;106632;1279;25316;-60
2023/02/13 11:15:27;;;;;;;6.90;1.30;;;;;;;6.28;95.88;102328.61;106567;1273;22549;-62
2023/02/13 11:18:12;;;;;;;8.20;1.20;;;;;;;6.28;96.47;102327.27;106662;1277;22543;-60
2023/02/13 11:20:46;;;;;;;9.40;1.90;;;;;;;6.26;95.01;102325.52;106524;1278;24775;-60
2023/02/13 11:23:33;;;;;;;9.20;1.40;;;;;;;6.23;95.41;102321.16;106520;1279;25316;-59
2023/02/13 11:26:08;;;;;;;6.30;1.10;;;;;;;6.22;95.78;102321.23;106679;1279;24188;-61
2023/02/13 11:28:47;;;;;;;6.90;1.20;;;;;;;6.23;95.64;102313.00;106615;1278;22536;-61
2023/02/13 11:31:26;;;;;;;6.00;1.40;;;;;;;6.27;95.68;102312.05;106620;1264;25442;-59
2023/02/13 11:33:58;;;;;;;10.10;1.40;;;;;;;6.29;95.35;102309.66;106666;1279;22565;-59
2023/02/13 11:36:31;;;;;;;7.00;1.50;;;;;;;6.31;95.55;102312.04;106791;1273;22520;-59
2023/02/13 11:39:05;;;;;;;5.30;1.40;;;;;;;6.34;95.87;102304.83;106632;1273;25495;-62
2023/02/13 11:41:43;;;;;;;4.90;1.20;;;;;;;6.36;95.94;102298.00;106518;1273;23952;-59
2023/02/13 11:44:25;;;;;;;6.20;1.20;;;;;;;6.35;94.59;102299.12;106675;1276;25408;-61
2023/02/13 11:46:57;;;;;;;7.90;1.00;;;;;;;6.33;94.67;102307.03;106616;1279;22546;-59
2023/02/13 11:49:32;;;;;;;5.00;1.00;;;;;;;6.30;94.27;102300.80;106619;1263;22529;-59
2023/02/13 11:52:05;;;;;;;7.20;1.40;;;;;;;6.28;94.36;102293.41;106600;1279;22529;-59
2023/02/13 11:54:40;;;;;;;6.10;1.10;;;;;;;6.25;94.16;102304.52;106569;1279;25424;-63
2023/02/13 11:57:22;;;;;;;6.10;1.40;;;;;;;6.24;93.82;102303.95;106737;1276;22581;-61
2023/02/13 11:59:54;;;;;;;5.70;1.10;;;;;;;6.22;93.71;102314.10;106564;1279;22581;-60
2023/02/13 12:02:27;;;;;;;6.30;1.10;;;;;;;6.20;94.38;102314.44;106519;1267;24271;-60
2023/02/13 12:05:19;;;;;;;7.90;1.10;;;;;;;6.20;93.91;102317.05;106475;1276;23971;-61
2023/02/13 12:07:50;;;;;;;7.60;1.20;;;;;;;6.20;93.79;102317.45;106366;1278;22539;-65
2023/02/13 12:10:27;;;;;;;5.40;1.10;;;;;;;6.20;93.66;102318.17;106293;1273;22533;-57
2023/02/13 12:13:04;;;;;;;6.00;1.00;;;;;;;6.21;94.05;102315.54;106310;1279;24289;-59
2023/02/13 12:15:56;;;;;;;6.30;1.30;;;;;;;6.21;93.53;102318.55;106157;1279;25378;-57
2023/02/13 12:18:31;;;;;;;5.00;1.50;;;;;;;6.21;92.82;102317.12;106462;1273;22533;-60
2023/02/13 12:21:12;;;;;;;5.10;1.10;;;;;;;6.21;92.77;102316.40;106224;1279;22540;-59
2023/02/13 12:23:50;;;;;;;7.00;1.40;;;;;;;6.19;92.47;102312.14;106156;1264;22775;-58
2023/02/13 12:26:30;;;;;;;5.20;1.30;;;;;;;6.19;92.10;102313.40;106247;1278;24249;-59
2023/02/13 12:29:45;;;;;;;4.80;1.30;;;;;;;6.17;91.46;102308.73;106183;1279;25490;-59
2023/02/13 12:32:21;;;;;;;8.50;1.20;;;;;;;6.13;91.46;102304.30;106168;1277;22480;-59
2023/02/13 12:35:15;;;;;;;4.40;1.20;;;;;;;6.10;90.93;102302.17;106200;1273;22549;-56